
<gpx xmlns="http://www.topografix.com/GPX/1/1" xmlns:gpxx="http://www.garmin.com/xmlschemas/GpxExtensions/v3" xmlns:xsi="http://www.w3.org/2001/XMLSchema-instance" version="1.1" creator="Adze - https://getadze.com/" xsi:schemaLocation="http://www.topografix.com/GPX/1/1 http://www.topografix.com/GPX/1/1/gpx.xsd http://www.garmin.com/xmlschemas/GpxExtensions/v3 http://www.garmin.com/xmlschemas/GpxExtensionsv3.xsd">
    <metadata>
        <name>Untitled Document</name>
        <link href="http://www.garmin.com"></link>
        <time>2018-03-08T10:40:45.083Z</time>
    </metadata>
    <wpt lon="101.406364" lat="14.216803">
        <ele>53.000000</ele>
        <name>KY Grand View</name>
        <cmt>22-APR-11 14:50:20</cmt>
        <desc>22-APR-11 14:50:20</desc>
        <sym>Lodging</sym>
        <extensions>
            <gpxx:WaypointExtension xmlns:gpxx="http://www.garmin.com/xmlschemas/GpxExtensions/v3">
                <gpxx:DisplayMode>SymbolOnly</gpxx:DisplayMode>
            </gpxx:WaypointExtension>
        </extensions>
    </wpt>
    <wpt lon="101.342453" lat="14.204433">
        <ele>26.000000</ele>
        <name>April 2011 - Sunday water </name>
        <cmt>24-APR-11 11:11:35</cmt>
        <desc>24-APR-11 11:11:35</desc>
        <sym>Drinking Water</sym>
        <extensions>
            <gpxx:WaypointExtension xmlns:gpxx="http://www.garmin.com/xmlschemas/GpxExtensions/v3">
                <gpxx:DisplayMode>SymbolOnly</gpxx:DisplayMode>
            </gpxx:WaypointExtension>
        </extensions>
    </wpt>
    <trk>
        <name>April 2011 - Sunday</name>
        <extensions>
            <gpxx:TrackExtension xmlns:gpxx="http://www.garmin.com/xmlschemas/GpxExtensions/v3">
                <gpxx:DisplayColor>Green</gpxx:DisplayColor>
            </gpxx:TrackExtension>
        </extensions>
        <trkseg>
            <trkpt lon="101.406365" lat="14.216808">
                <ele>36.667481</ele>
                <time>2011-04-24T02:59:54Z</time>
            </trkpt>
            <trkpt lon="101.406838" lat="14.216798">
                <ele>36.186768</ele>
                <time>2011-04-24T03:00:14Z</time>
            </trkpt>
            <trkpt lon="101.407306" lat="14.217031">
                <ele>37.148071</ele>
                <time>2011-04-24T03:00:26Z</time>
            </trkpt>
            <trkpt lon="101.407134" lat="14.217274">
                <ele>37.148071</ele>
                <time>2011-04-24T03:00:34Z</time>
            </trkpt>
            <trkpt lon="101.406357" lat="14.217500">
                <ele>36.667481</ele>
                <time>2011-04-24T03:00:51Z</time>
            </trkpt>
            <trkpt lon="101.405933" lat="14.217782">
                <ele>35.225464</ele>
                <time>2011-04-24T03:01:02Z</time>
            </trkpt>
            <trkpt lon="101.405920" lat="14.218160">
                <ele>35.225464</ele>
                <time>2011-04-24T03:01:10Z</time>
            </trkpt>
            <trkpt lon="101.405702" lat="14.218342">
                <ele>34.264160</ele>
                <time>2011-04-24T03:01:18Z</time>
            </trkpt>
            <trkpt lon="101.405639" lat="14.218634">
                <ele>33.783447</ele>
                <time>2011-04-24T03:01:25Z</time>
            </trkpt>
            <trkpt lon="101.405651" lat="14.221768">
                <ele>39.551269</ele>
                <time>2011-04-24T03:02:31Z</time>
            </trkpt>
            <trkpt lon="101.405595" lat="14.222023">
                <ele>40.993408</ele>
                <time>2011-04-24T03:02:39Z</time>
            </trkpt>
            <trkpt lon="101.405029" lat="14.222119">
                <ele>41.954712</ele>
                <time>2011-04-24T03:02:52Z</time>
            </trkpt>
            <trkpt lon="101.402478" lat="14.220862">
                <ele>35.225464</ele>
                <time>2011-04-24T03:03:34Z</time>
            </trkpt>
            <trkpt lon="101.401827" lat="14.220925">
                <ele>32.822266</ele>
                <time>2011-04-24T03:03:45Z</time>
            </trkpt>
            <trkpt lon="101.399613" lat="14.220191">
                <ele>36.186768</ele>
                <time>2011-04-24T03:04:24Z</time>
            </trkpt>
            <trkpt lon="101.398424" lat="14.220064">
                <ele>36.186768</ele>
                <time>2011-04-24T03:05:14Z</time>
            </trkpt>
            <trkpt lon="101.397598" lat="14.219181">
                <ele>31.380127</ele>
                <time>2011-04-24T03:05:38Z</time>
            </trkpt>
            <trkpt lon="101.397389" lat="14.218186">
                <ele>31.380127</ele>
                <time>2011-04-24T03:06:00Z</time>
            </trkpt>
            <trkpt lon="101.397190" lat="14.218062">
                <ele>30.418823</ele>
                <time>2011-04-24T03:06:08Z</time>
            </trkpt>
            <trkpt lon="101.395753" lat="14.218063">
                <ele>26.573608</ele>
                <time>2011-04-24T03:06:48Z</time>
            </trkpt>
            <trkpt lon="101.395328" lat="14.217764">
                <ele>26.573608</ele>
                <time>2011-04-24T03:07:08Z</time>
            </trkpt>
            <trkpt lon="101.395108" lat="14.217744">
                <ele>26.092896</ele>
                <time>2011-04-24T03:07:13Z</time>
            </trkpt>
            <trkpt lon="101.394824" lat="14.217696">
                <ele>25.131714</ele>
                <time>2011-04-24T03:07:19Z</time>
            </trkpt>
            <trkpt lon="101.394499" lat="14.217732">
                <ele>25.131714</ele>
                <time>2011-04-24T03:07:26Z</time>
            </trkpt>
            <trkpt lon="101.394300" lat="14.218000">
                <ele>25.612305</ele>
                <time>2011-04-24T03:07:34Z</time>
            </trkpt>
            <trkpt lon="101.393596" lat="14.218270">
                <ele>32.341553</ele>
                <time>2011-04-24T03:11:08Z</time>
            </trkpt>
            <trkpt lon="101.393540" lat="14.218231">
                <ele>32.341553</ele>
                <time>2011-04-24T03:11:21Z</time>
            </trkpt>
            <trkpt lon="101.392990" lat="14.217934">
                <ele>28.015503</ele>
                <time>2011-04-24T03:12:51Z</time>
            </trkpt>
            <trkpt lon="101.391685" lat="14.217814">
                <ele>28.015503</ele>
                <time>2011-04-24T03:13:20Z</time>
            </trkpt>
            <trkpt lon="101.390852" lat="14.216032">
                <ele>38.109375</ele>
                <time>2011-04-24T03:13:56Z</time>
            </trkpt>
            <trkpt lon="101.389867" lat="14.216638">
                <ele>32.341553</ele>
                <time>2011-04-24T03:14:26Z</time>
            </trkpt>
            <trkpt lon="101.389367" lat="14.216532">
                <ele>31.860718</ele>
                <time>2011-04-24T03:14:37Z</time>
            </trkpt>
            <trkpt lon="101.388908" lat="14.216030">
                <ele>30.899536</ele>
                <time>2011-04-24T03:14:51Z</time>
            </trkpt>
            <trkpt lon="101.388616" lat="14.215704">
                <ele>27.534912</ele>
                <time>2011-04-24T03:15:03Z</time>
            </trkpt>
            <trkpt lon="101.387263" lat="14.215783">
                <ele>28.015503</ele>
                <time>2011-04-24T03:15:47Z</time>
            </trkpt>
            <trkpt lon="101.387140" lat="14.215614">
                <ele>27.534912</ele>
                <time>2011-04-24T03:15:53Z</time>
            </trkpt>
            <trkpt lon="101.385816" lat="14.215371">
                <ele>24.651001</ele>
                <time>2011-04-24T03:16:38Z</time>
            </trkpt>
            <trkpt lon="101.385744" lat="14.215168">
                <ele>27.054321</ele>
                <time>2011-04-24T03:16:47Z</time>
            </trkpt>
            <trkpt lon="101.385627" lat="14.214606">
                <ele>24.651001</ele>
                <time>2011-04-24T03:17:12Z</time>
            </trkpt>
            <trkpt lon="101.385767" lat="14.214266">
                <ele>24.651001</ele>
                <time>2011-04-24T03:17:38Z</time>
            </trkpt>
            <trkpt lon="101.384620" lat="14.212210">
                <ele>25.131714</ele>
                <time>2011-04-24T03:18:57Z</time>
            </trkpt>
            <trkpt lon="101.384454" lat="14.211677">
                <ele>23.689575</ele>
                <time>2011-04-24T03:19:15Z</time>
            </trkpt>
            <trkpt lon="101.384411" lat="14.211765">
                <ele>19.844360</ele>
                <time>2011-04-24T03:19:18Z</time>
            </trkpt>
            <trkpt lon="101.384519" lat="14.211618">
                <ele>16.479736</ele>
                <time>2011-04-24T03:19:23Z</time>
            </trkpt>
            <trkpt lon="101.384083" lat="14.209663">
                <ele>21.766968</ele>
                <time>2011-04-24T03:20:15Z</time>
            </trkpt>
            <trkpt lon="101.385922" lat="14.209232">
                <ele>26.092896</ele>
                <time>2011-04-24T03:23:24Z</time>
            </trkpt>
            <trkpt lon="101.386922" lat="14.208620">
                <ele>27.054321</ele>
                <time>2011-04-24T03:24:10Z</time>
            </trkpt>
            <trkpt lon="101.387682" lat="14.209275">
                <ele>29.457520</ele>
                <time>2011-04-24T03:24:45Z</time>
            </trkpt>
            <trkpt lon="101.388173" lat="14.209375">
                <ele>32.341553</ele>
                <time>2011-04-24T03:25:00Z</time>
            </trkpt>
            <trkpt lon="101.388037" lat="14.208952">
                <ele>33.783447</ele>
                <time>2011-04-24T03:25:14Z</time>
            </trkpt>
            <trkpt lon="101.387646" lat="14.208587">
                <ele>34.744873</ele>
                <time>2011-04-24T03:25:24Z</time>
            </trkpt>
            <trkpt lon="101.387396" lat="14.208010">
                <ele>35.225464</ele>
                <time>2011-04-24T03:25:35Z</time>
            </trkpt>
            <trkpt lon="101.385491" lat="14.207214">
                <ele>26.573608</ele>
                <time>2011-04-24T03:26:04Z</time>
            </trkpt>
            <trkpt lon="101.382653" lat="14.205564">
                <ele>19.844360</ele>
                <time>2011-04-24T03:26:46Z</time>
            </trkpt>
            <trkpt lon="101.375729" lat="14.201135">
                <ele>16.479736</ele>
                <time>2011-04-24T03:28:55Z</time>
            </trkpt>
            <trkpt lon="101.372785" lat="14.199134">
                <ele>15.518433</ele>
                <time>2011-04-24T03:29:54Z</time>
            </trkpt>
            <trkpt lon="101.371965" lat="14.197710">
                <ele>17.921753</ele>
                <time>2011-04-24T03:30:25Z</time>
            </trkpt>
            <trkpt lon="101.369330" lat="14.196980">
                <ele>15.999023</ele>
                <time>2011-04-24T03:40:05Z</time>
            </trkpt>
            <trkpt lon="101.367642" lat="14.196215">
                <ele>15.999023</ele>
                <time>2011-04-24T03:40:41Z</time>
            </trkpt>
            <trkpt lon="101.366073" lat="14.195686">
                <ele>14.076416</ele>
                <time>2011-04-24T03:41:14Z</time>
            </trkpt>
            <trkpt lon="101.365852" lat="14.198039">
                <ele>14.557007</ele>
                <time>2011-04-24T03:42:58Z</time>
            </trkpt>
            <trkpt lon="101.365749" lat="14.198391">
                <ele>14.557007</ele>
                <time>2011-04-24T03:43:17Z</time>
            </trkpt>
            <trkpt lon="101.364878" lat="14.198873">
                <ele>14.557007</ele>
                <time>2011-04-24T03:44:00Z</time>
            </trkpt>
            <trkpt lon="101.364954" lat="14.199920">
                <ele>15.518433</ele>
                <time>2011-04-24T03:44:48Z</time>
            </trkpt>
            <trkpt lon="101.362334" lat="14.200973">
                <ele>19.363770</ele>
                <time>2011-04-24T03:47:29Z</time>
            </trkpt>
            <trkpt lon="101.360295" lat="14.201022">
                <ele>17.921753</ele>
                <time>2011-04-24T03:48:24Z</time>
            </trkpt>
            <trkpt lon="101.359029" lat="14.201064">
                <ele>11.673218</ele>
                <time>2011-04-24T03:48:59Z</time>
            </trkpt>
            <trkpt lon="101.358656" lat="14.200868">
                <ele>12.634399</ele>
                <time>2011-04-24T03:49:13Z</time>
            </trkpt>
            <trkpt lon="101.358490" lat="14.200185">
                <ele>15.037720</ele>
                <time>2011-04-24T03:49:33Z</time>
            </trkpt>
            <trkpt lon="101.358309" lat="14.198917">
                <ele>15.518433</ele>
                <time>2011-04-24T03:50:03Z</time>
            </trkpt>
            <trkpt lon="101.357813" lat="14.198739">
                <ele>15.037720</ele>
                <time>2011-04-24T03:50:16Z</time>
            </trkpt>
            <trkpt lon="101.356665" lat="14.198742">
                <ele>14.076416</ele>
                <time>2011-04-24T03:50:45Z</time>
            </trkpt>
            <trkpt lon="101.356079" lat="14.198851">
                <ele>13.115112</ele>
                <time>2011-04-24T03:51:00Z</time>
            </trkpt>
            <trkpt lon="101.355929" lat="14.199276">
                <ele>14.076416</ele>
                <time>2011-04-24T03:51:13Z</time>
            </trkpt>
            <trkpt lon="101.355750" lat="14.199304">
                <ele>13.595825</ele>
                <time>2011-04-24T03:51:18Z</time>
            </trkpt>
            <trkpt lon="101.354086" lat="14.198898">
                <ele>11.673218</ele>
                <time>2011-04-24T03:52:08Z</time>
            </trkpt>
            <trkpt lon="101.353624" lat="14.198463">
                <ele>13.115112</ele>
                <time>2011-04-24T03:52:24Z</time>
            </trkpt>
            <trkpt lon="101.353370" lat="14.198414">
                <ele>13.595825</ele>
                <time>2011-04-24T03:52:31Z</time>
            </trkpt>
            <trkpt lon="101.352525" lat="14.198796">
                <ele>12.634399</ele>
                <time>2011-04-24T03:52:56Z</time>
            </trkpt>
            <trkpt lon="101.351819" lat="14.198082">
                <ele>15.037720</ele>
                <time>2011-04-24T03:53:20Z</time>
            </trkpt>
            <trkpt lon="101.350800" lat="14.197320">
                <ele>15.999023</ele>
                <time>2011-04-24T03:53:49Z</time>
            </trkpt>
            <trkpt lon="101.350196" lat="14.196988">
                <ele>14.076416</ele>
                <time>2011-04-24T03:54:06Z</time>
            </trkpt>
            <trkpt lon="101.349062" lat="14.197067">
                <ele>11.673218</ele>
                <time>2011-04-24T03:54:30Z</time>
            </trkpt>
            <trkpt lon="101.348809" lat="14.196504">
                <ele>13.115112</ele>
                <time>2011-04-24T03:54:45Z</time>
            </trkpt>
            <trkpt lon="101.348570" lat="14.195883">
                <ele>10.231201</ele>
                <time>2011-04-24T03:55:01Z</time>
            </trkpt>
            <trkpt lon="101.348224" lat="14.196019">
                <ele>10.231201</ele>
                <time>2011-04-24T03:55:10Z</time>
            </trkpt>
            <trkpt lon="101.348075" lat="14.195906">
                <ele>10.711792</ele>
                <time>2011-04-24T03:55:16Z</time>
            </trkpt>
            <trkpt lon="101.347669" lat="14.195368">
                <ele>10.231201</ele>
                <time>2011-04-24T03:55:30Z</time>
            </trkpt>
            <trkpt lon="101.347183" lat="14.195009">
                <ele>10.711792</ele>
                <time>2011-04-24T03:55:43Z</time>
            </trkpt>
            <trkpt lon="101.346768" lat="14.194908">
                <ele>9.750610</ele>
                <time>2011-04-24T03:55:53Z</time>
            </trkpt>
            <trkpt lon="101.346422" lat="14.194586">
                <ele>8.789185</ele>
                <time>2011-04-24T03:56:03Z</time>
            </trkpt>
            <trkpt lon="101.346100" lat="14.193903">
                <ele>6.866455</ele>
                <time>2011-04-24T03:56:18Z</time>
            </trkpt>
            <trkpt lon="101.345319" lat="14.193325">
                <ele>6.866455</ele>
                <time>2011-04-24T03:56:37Z</time>
            </trkpt>
            <trkpt lon="101.345229" lat="14.192748">
                <ele>5.424561</ele>
                <time>2011-04-24T03:56:42Z</time>
            </trkpt>
            <trkpt lon="101.345051" lat="14.192712">
                <ele>5.424561</ele>
                <time>2011-04-24T03:56:49Z</time>
            </trkpt>
            <trkpt lon="101.345004" lat="14.192869">
                <ele>6.385864</ele>
                <time>2011-04-24T03:56:51Z</time>
            </trkpt>
            <trkpt lon="101.344631" lat="14.193036">
                <ele>5.905273</ele>
                <time>2011-04-24T03:56:57Z</time>
            </trkpt>
            <trkpt lon="101.344232" lat="14.193790">
                <ele>7.827881</ele>
                <time>2011-04-24T03:57:13Z</time>
            </trkpt>
            <trkpt lon="101.343577" lat="14.194334">
                <ele>7.347168</ele>
                <time>2011-04-24T03:57:30Z</time>
            </trkpt>
            <trkpt lon="101.343119" lat="14.194611">
                <ele>11.673218</ele>
                <time>2011-04-24T03:57:45Z</time>
            </trkpt>
            <trkpt lon="101.342210" lat="14.194814">
                <ele>15.518433</ele>
                <time>2011-04-24T03:58:13Z</time>
            </trkpt>
            <trkpt lon="101.341139" lat="14.195181">
                <ele>17.441162</ele>
                <time>2011-04-24T03:58:42Z</time>
            </trkpt>
            <trkpt lon="101.341126" lat="14.195333">
                <ele>18.402344</ele>
                <time>2011-04-24T03:58:48Z</time>
            </trkpt>
            <trkpt lon="101.341434" lat="14.195680">
                <ele>21.766968</ele>
                <time>2011-04-24T03:59:02Z</time>
            </trkpt>
            <trkpt lon="101.341505" lat="14.195932">
                <ele>21.286377</ele>
                <time>2011-04-24T03:59:12Z</time>
            </trkpt>
            <trkpt lon="101.341312" lat="14.196131">
                <ele>25.131714</ele>
                <time>2011-04-24T03:59:23Z</time>
            </trkpt>
            <trkpt lon="101.341127" lat="14.196948">
                <ele>26.573608</ele>
                <time>2011-04-24T03:59:57Z</time>
            </trkpt>
            <trkpt lon="101.341104" lat="14.197078">
                <ele>25.612305</ele>
                <time>2011-04-24T04:00:03Z</time>
            </trkpt>
            <trkpt lon="101.340629" lat="14.197362">
                <ele>25.131714</ele>
                <time>2011-04-24T04:00:28Z</time>
            </trkpt>
            <trkpt lon="101.340553" lat="14.197374">
                <ele>24.651001</ele>
                <time>2011-04-24T04:00:31Z</time>
            </trkpt>
            <trkpt lon="101.340035" lat="14.196050">
                <ele>25.131714</ele>
                <time>2011-04-24T04:01:28Z</time>
            </trkpt>
            <trkpt lon="101.339893" lat="14.195795">
                <ele>22.728272</ele>
                <time>2011-04-24T04:02:36Z</time>
            </trkpt>
            <trkpt lon="101.338731" lat="14.196628">
                <ele>23.208984</ele>
                <time>2011-04-24T04:03:14Z</time>
            </trkpt>
            <trkpt lon="101.339182" lat="14.198067">
                <ele>25.131714</ele>
                <time>2011-04-24T04:03:48Z</time>
            </trkpt>
            <trkpt lon="101.339482" lat="14.198626">
                <ele>25.612305</ele>
                <time>2011-04-24T04:04:06Z</time>
            </trkpt>
            <trkpt lon="101.339307" lat="14.198444">
                <ele>21.766968</ele>
                <time>2011-04-24T04:04:17Z</time>
            </trkpt>
            <trkpt lon="101.338968" lat="14.198434">
                <ele>19.844360</ele>
                <time>2011-04-24T04:04:26Z</time>
            </trkpt>
            <trkpt lon="101.338533" lat="14.198961">
                <ele>15.518433</ele>
                <time>2011-04-24T04:04:48Z</time>
            </trkpt>
            <trkpt lon="101.337820" lat="14.199454">
                <ele>16.960449</ele>
                <time>2011-04-24T04:05:41Z</time>
            </trkpt>
            <trkpt lon="101.338054" lat="14.199218">
                <ele>15.999023</ele>
                <time>2011-04-24T04:05:58Z</time>
            </trkpt>
            <trkpt lon="101.338181" lat="14.199460">
                <ele>14.557007</ele>
                <time>2011-04-24T04:06:07Z</time>
            </trkpt>
            <trkpt lon="101.338527" lat="14.199395">
                <ele>13.595825</ele>
                <time>2011-04-24T04:06:10Z</time>
            </trkpt>
            <trkpt lon="101.338467" lat="14.199652">
                <ele>16.960449</ele>
                <time>2011-04-24T04:06:21Z</time>
            </trkpt>
            <trkpt lon="101.337808" lat="14.199668">
                <ele>12.634399</ele>
                <time>2011-04-24T04:06:54Z</time>
            </trkpt>
            <trkpt lon="101.337551" lat="14.199466">
                <ele>12.634399</ele>
                <time>2011-04-24T04:07:06Z</time>
            </trkpt>
            <trkpt lon="101.337513" lat="14.199424">
                <ele>11.673218</ele>
                <time>2011-04-24T04:07:08Z</time>
            </trkpt>
            <trkpt lon="101.335916" lat="14.199774">
                <ele>13.595825</ele>
                <time>2011-04-24T04:07:50Z</time>
            </trkpt>
            <trkpt lon="101.335692" lat="14.200720">
                <ele>16.479736</ele>
                <time>2011-04-24T04:08:18Z</time>
            </trkpt>
            <trkpt lon="101.336251" lat="14.201389">
                <ele>20.805664</ele>
                <time>2011-04-24T04:08:41Z</time>
            </trkpt>
            <trkpt lon="101.337458" lat="14.202591">
                <ele>14.557007</ele>
                <time>2011-04-24T04:09:20Z</time>
            </trkpt>
            <trkpt lon="101.338184" lat="14.203003">
                <ele>14.557007</ele>
                <time>2011-04-24T04:09:38Z</time>
            </trkpt>
            <trkpt lon="101.341496" lat="14.204050">
                <ele>18.883057</ele>
                <time>2011-04-24T04:11:03Z</time>
            </trkpt>
            <trkpt lon="101.342426" lat="14.204465">
                <ele>26.573608</ele>
                <time>2011-04-24T04:11:51Z</time>
            </trkpt>
            <trkpt lon="101.344160" lat="14.204910">
                <ele>18.402344</ele>
                <time>2011-04-24T04:26:41Z</time>
            </trkpt>
            <trkpt lon="101.347210" lat="14.206018">
                <ele>14.557007</ele>
                <time>2011-04-24T04:27:40Z</time>
            </trkpt>
            <trkpt lon="101.348288" lat="14.206685">
                <ele>15.518433</ele>
                <time>2011-04-24T04:28:07Z</time>
            </trkpt>
            <trkpt lon="101.351104" lat="14.207217">
                <ele>19.844360</ele>
                <time>2011-04-24T04:29:07Z</time>
            </trkpt>
            <trkpt lon="101.358825" lat="14.207318">
                <ele>14.076416</ele>
                <time>2011-04-24T04:31:21Z</time>
            </trkpt>
            <trkpt lon="101.358841" lat="14.207510">
                <ele>14.557007</ele>
                <time>2011-04-24T04:31:27Z</time>
            </trkpt>
            <trkpt lon="101.358498" lat="14.208028">
                <ele>15.037720</ele>
                <time>2011-04-24T04:31:39Z</time>
            </trkpt>
            <trkpt lon="101.358634" lat="14.209161">
                <ele>21.286377</ele>
                <time>2011-04-24T04:32:02Z</time>
            </trkpt>
            <trkpt lon="101.357449" lat="14.211036">
                <ele>17.441162</ele>
                <time>2011-04-24T04:32:47Z</time>
            </trkpt>
            <trkpt lon="101.357517" lat="14.211924">
                <ele>16.960449</ele>
                <time>2011-04-24T04:33:05Z</time>
            </trkpt>
            <trkpt lon="101.357743" lat="14.212463">
                <ele>16.479736</ele>
                <time>2011-04-24T04:33:18Z</time>
            </trkpt>
            <trkpt lon="101.358399" lat="14.213194">
                <ele>16.960449</ele>
                <time>2011-04-24T04:33:37Z</time>
            </trkpt>
            <trkpt lon="101.359879" lat="14.214328">
                <ele>17.921753</ele>
                <time>2011-04-24T04:34:17Z</time>
            </trkpt>
            <trkpt lon="101.361571" lat="14.215065">
                <ele>16.960449</ele>
                <time>2011-04-24T04:34:51Z</time>
            </trkpt>
            <trkpt lon="101.362437" lat="14.215062">
                <ele>18.402344</ele>
                <time>2011-04-24T04:35:07Z</time>
            </trkpt>
            <trkpt lon="101.364055" lat="14.214992">
                <ele>17.441162</ele>
                <time>2011-04-24T04:35:37Z</time>
            </trkpt>
            <trkpt lon="101.364546" lat="14.215420">
                <ele>15.999023</ele>
                <time>2011-04-24T04:35:49Z</time>
            </trkpt>
            <trkpt lon="101.365061" lat="14.215649">
                <ele>15.999023</ele>
                <time>2011-04-24T04:36:00Z</time>
            </trkpt>
            <trkpt lon="101.365352" lat="14.216412">
                <ele>18.402344</ele>
                <time>2011-04-24T04:36:18Z</time>
            </trkpt>
            <trkpt lon="101.365675" lat="14.216858">
                <ele>20.324951</ele>
                <time>2011-04-24T04:36:31Z</time>
            </trkpt>
            <trkpt lon="101.365867" lat="14.217128">
                <ele>20.324951</ele>
                <time>2011-04-24T04:36:39Z</time>
            </trkpt>
            <trkpt lon="101.366021" lat="14.217122">
                <ele>20.324951</ele>
                <time>2011-04-24T04:36:46Z</time>
            </trkpt>
            <trkpt lon="101.366167" lat="14.216679">
                <ele>20.805664</ele>
                <time>2011-04-24T04:37:03Z</time>
            </trkpt>
            <trkpt lon="101.366527" lat="14.216196">
                <ele>20.805664</ele>
                <time>2011-04-24T04:37:21Z</time>
            </trkpt>
            <trkpt lon="101.366851" lat="14.216092">
                <ele>20.324951</ele>
                <time>2011-04-24T04:37:32Z</time>
            </trkpt>
            <trkpt lon="101.366726" lat="14.217276">
                <ele>17.921753</ele>
                <time>2011-04-24T04:38:08Z</time>
            </trkpt>
            <trkpt lon="101.368035" lat="14.216958">
                <ele>16.960449</ele>
                <time>2011-04-24T04:38:44Z</time>
            </trkpt>
            <trkpt lon="101.369301" lat="14.217297">
                <ele>19.844360</ele>
                <time>2011-04-24T04:39:21Z</time>
            </trkpt>
            <trkpt lon="101.370016" lat="14.217984">
                <ele>21.766968</ele>
                <time>2011-04-24T04:39:44Z</time>
            </trkpt>
            <trkpt lon="101.370687" lat="14.218890">
                <ele>26.092896</ele>
                <time>2011-04-24T04:40:09Z</time>
            </trkpt>
            <trkpt lon="101.370999" lat="14.219994">
                <ele>26.573608</ele>
                <time>2011-04-24T04:40:43Z</time>
            </trkpt>
            <trkpt lon="101.370813" lat="14.220198">
                <ele>24.170288</ele>
                <time>2011-04-24T04:40:50Z</time>
            </trkpt>
            <trkpt lon="101.370143" lat="14.220465">
                <ele>23.208984</ele>
                <time>2011-04-24T04:41:06Z</time>
            </trkpt>
            <trkpt lon="101.369647" lat="14.222257">
                <ele>22.247559</ele>
                <time>2011-04-24T04:41:50Z</time>
            </trkpt>
            <trkpt lon="101.369167" lat="14.222430">
                <ele>21.286377</ele>
                <time>2011-04-24T04:42:01Z</time>
            </trkpt>
            <trkpt lon="101.369011" lat="14.222726">
                <ele>21.766968</ele>
                <time>2011-04-24T04:42:10Z</time>
            </trkpt>
            <trkpt lon="101.369915" lat="14.225366">
                <ele>25.131714</ele>
                <time>2011-04-24T04:43:36Z</time>
            </trkpt>
            <trkpt lon="101.369947" lat="14.225407">
                <ele>22.247559</ele>
                <time>2011-04-24T04:43:55Z</time>
            </trkpt>
            <trkpt lon="101.369827" lat="14.225774">
                <ele>20.324951</ele>
                <time>2011-04-24T04:44:42Z</time>
            </trkpt>
            <trkpt lon="101.369903" lat="14.226440">
                <ele>25.131714</ele>
                <time>2011-04-24T04:45:04Z</time>
            </trkpt>
            <trkpt lon="101.370051" lat="14.227291">
                <ele>27.054321</ele>
                <time>2011-04-24T04:45:37Z</time>
            </trkpt>
            <trkpt lon="101.370340" lat="14.228023">
                <ele>32.341553</ele>
                <time>2011-04-24T04:46:08Z</time>
            </trkpt>
            <trkpt lon="101.370617" lat="14.228181">
                <ele>36.186768</ele>
                <time>2011-04-24T04:46:24Z</time>
            </trkpt>
            <trkpt lon="101.370750" lat="14.228386">
                <ele>36.667481</ele>
                <time>2011-04-24T04:46:37Z</time>
            </trkpt>
            <trkpt lon="101.371956" lat="14.228586">
                <ele>33.302856</ele>
                <time>2011-04-24T04:47:07Z</time>
            </trkpt>
            <trkpt lon="101.373001" lat="14.228514">
                <ele>42.435425</ele>
                <time>2011-04-24T04:47:56Z</time>
            </trkpt>
            <trkpt lon="101.374484" lat="14.228174">
                <ele>39.551269</ele>
                <time>2011-04-24T04:48:38Z</time>
            </trkpt>
            <trkpt lon="101.376136" lat="14.228651">
                <ele>31.380127</ele>
                <time>2011-04-24T04:49:08Z</time>
            </trkpt>
            <trkpt lon="101.377141" lat="14.229332">
                <ele>31.380127</ele>
                <time>2011-04-24T04:49:29Z</time>
            </trkpt>
            <trkpt lon="101.377868" lat="14.229584">
                <ele>28.976929</ele>
                <time>2011-04-24T04:49:43Z</time>
            </trkpt>
            <trkpt lon="101.379116" lat="14.228947">
                <ele>27.054321</ele>
                <time>2011-04-24T04:50:08Z</time>
            </trkpt>
            <trkpt lon="101.379831" lat="14.229290">
                <ele>30.899536</ele>
                <time>2011-04-24T04:50:22Z</time>
            </trkpt>
            <trkpt lon="101.380736" lat="14.229833">
                <ele>28.015503</ele>
                <time>2011-04-24T04:50:43Z</time>
            </trkpt>
            <trkpt lon="101.381235" lat="14.230279">
                <ele>31.380127</ele>
                <time>2011-04-24T04:50:57Z</time>
            </trkpt>
            <trkpt lon="101.381323" lat="14.230401">
                <ele>30.899536</ele>
                <time>2011-04-24T04:51:00Z</time>
            </trkpt>
            <trkpt lon="101.381638" lat="14.230797">
                <ele>16.960449</ele>
                <time>2011-04-24T04:51:09Z</time>
            </trkpt>
            <trkpt lon="101.381750" lat="14.230828">
                <ele>17.921753</ele>
                <time>2011-04-24T04:51:12Z</time>
            </trkpt>
            <trkpt lon="101.381986" lat="14.229715">
                <ele>22.728272</ele>
                <time>2011-04-24T04:51:32Z</time>
            </trkpt>
            <trkpt lon="101.382591" lat="14.227865">
                <ele>25.131714</ele>
                <time>2011-04-24T04:52:03Z</time>
            </trkpt>
            <trkpt lon="101.383545" lat="14.226125">
                <ele>28.976929</ele>
                <time>2011-04-24T04:52:35Z</time>
            </trkpt>
            <trkpt lon="101.385773" lat="14.226661">
                <ele>25.131714</ele>
                <time>2011-04-24T04:53:20Z</time>
            </trkpt>
            <trkpt lon="101.387844" lat="14.226534">
                <ele>26.573608</ele>
                <time>2011-04-24T04:53:56Z</time>
            </trkpt>
            <trkpt lon="101.391604" lat="14.225415">
                <ele>27.534912</ele>
                <time>2011-04-24T04:54:56Z</time>
            </trkpt>
            <trkpt lon="101.392986" lat="14.225205">
                <ele>26.092896</ele>
                <time>2011-04-24T04:55:18Z</time>
            </trkpt>
            <trkpt lon="101.395414" lat="14.225166">
                <ele>26.573608</ele>
                <time>2011-04-24T04:55:59Z</time>
            </trkpt>
            <trkpt lon="101.396336" lat="14.224630">
                <ele>29.457520</ele>
                <time>2011-04-24T04:56:20Z</time>
            </trkpt>
            <trkpt lon="101.396466" lat="14.224679">
                <ele>29.457520</ele>
                <time>2011-04-24T04:56:26Z</time>
            </trkpt>
            <trkpt lon="101.397377" lat="14.226214">
                <ele>30.899536</ele>
                <time>2011-04-24T04:57:16Z</time>
            </trkpt>
            <trkpt lon="101.398337" lat="14.225675">
                <ele>38.109375</ele>
                <time>2011-04-24T04:57:57Z</time>
            </trkpt>
            <trkpt lon="101.399151" lat="14.225299">
                <ele>29.938110</ele>
                <time>2011-04-24T04:58:29Z</time>
            </trkpt>
            <trkpt lon="101.400746" lat="14.225172">
                <ele>29.938110</ele>
                <time>2011-04-24T04:59:19Z</time>
            </trkpt>
            <trkpt lon="101.402027" lat="14.224650">
                <ele>32.822266</ele>
                <time>2011-04-24T05:00:09Z</time>
            </trkpt>
            <trkpt lon="101.402460" lat="14.224365">
                <ele>33.302856</ele>
                <time>2011-04-24T05:00:31Z</time>
            </trkpt>
            <trkpt lon="101.402742" lat="14.223979">
                <ele>36.667481</ele>
                <time>2011-04-24T05:00:52Z</time>
            </trkpt>
            <trkpt lon="101.402922" lat="14.223624">
                <ele>37.148071</ele>
                <time>2011-04-24T05:01:05Z</time>
            </trkpt>
            <trkpt lon="101.404225" lat="14.222465">
                <ele>37.628662</ele>
                <time>2011-04-24T05:02:01Z</time>
            </trkpt>
            <trkpt lon="101.404456" lat="14.222104">
                <ele>37.148071</ele>
                <time>2011-04-24T05:02:12Z</time>
            </trkpt>
            <trkpt lon="101.405613" lat="14.222022">
                <ele>39.070679</ele>
                <time>2011-04-24T05:02:43Z</time>
            </trkpt>
            <trkpt lon="101.405664" lat="14.221910">
                <ele>41.954712</ele>
                <time>2011-04-24T05:02:47Z</time>
            </trkpt>
            <trkpt lon="101.405656" lat="14.218564">
                <ele>39.070679</ele>
                <time>2011-04-24T05:03:44Z</time>
            </trkpt>
            <trkpt lon="101.405934" lat="14.218293">
                <ele>40.032105</ele>
                <time>2011-04-24T05:03:54Z</time>
            </trkpt>
            <trkpt lon="101.405920" lat="14.217971">
                <ele>39.070679</ele>
                <time>2011-04-24T05:04:01Z</time>
            </trkpt>
            <trkpt lon="101.406204" lat="14.217528">
                <ele>38.109375</ele>
                <time>2011-04-24T05:04:12Z</time>
            </trkpt>
            <trkpt lon="101.407182" lat="14.217236">
                <ele>39.070679</ele>
                <time>2011-04-24T05:04:33Z</time>
            </trkpt>
            <trkpt lon="101.407294" lat="14.216958">
                <ele>39.070679</ele>
                <time>2011-04-24T05:04:41Z</time>
            </trkpt>
            <trkpt lon="101.406780" lat="14.216727">
                <ele>35.706055</ele>
                <time>2011-04-24T05:04:52Z</time>
            </trkpt>
        </trkseg>
    </trk>
</gpx>